sensor_id;sensor_type;location;lat;lon;timestamp;P1;durP1;ratioP1;P2;durP2;ratioP2
295;SDS011;132;48.770;9.200;2023-01-26T00:02:13;68.30;;;27.27;;
295;SDS011;132;48.770;9.200;2023-01-26T00:04:39;59.35;;;24.95;;
295;SDS011;132;48.770;9.200;2023-01-26T00:07:06;60.30;;;26.38;;
295;SDS011;132;48.770;9.200;2023-01-26T00:09:32;69.20;;;28.95;;
295;SDS011;132;48.770;9.200;2023-01-26T00:11:59;71.38;;;26.85;;
295;SDS011;132;48.770;9.200;2023-01-26T00:14:25;77.00;;;29.35;;
295;SDS011;132;48.770;9.200;2023-01-26T00:16:52;77.50;;;29.00;;
295;SDS011;132;48.770;9.200;2023-01-26T00:19:19;67.88;;;25.95;;
295;SDS011;132;48.770;9.200;2023-01-26T00:21:45;60.58;;;24.27;;
295;SDS011;132;48.770;9.200;2023-01-26T00:24:12;62.38;;;26.20;;
295;SDS011;132;48.770;9.200;2023-01-26T00:26:38;66.50;;;25.42;;
295;SDS011;132;48.770;9.200;2023-01-26T00:29:04;63.38;;;25.30;;
295;SDS011;132;48.770;9.200;2023-01-26T00:31:31;65.43;;;26.63;;
295;SDS011;132;48.770;9.200;2023-01-26T00:33:58;65.22;;;25.23;;
295;SDS011;132;48.770;9.200;2023-01-26T00:36:25;64.85;;;25.25;;
295;SDS011;132;48.770;9.200;2023-01-26T00:38:52;59.67;;;24.05;;
295;SDS011;132;48.770;9.200;2023-01-26T00:41:18;65.55;;;25.73;;
295;SDS011;132;48.770;9.200;2023-01-26T00:44:03;64.25;;;25.08;;
295;SDS011;132;48.770;9.200;2023-01-26T00:46:30;76.38;;;27.20;;
295;SDS011;132;48.770;9.200;2023-01-26T00:48:56;68.05;;;24.38;;
295;SDS011;132;48.770;9.200;2023-01-26T00:51:28;62.22;;;24.25;;
295;SDS011;132;48.770;9.200;2023-01-26T00:53:55;65.00;;;24.80;;
295;SDS011;132;48.770;9.200;2023-01-26T00:56:22;64.93;;;25.23;;
295;SDS011;132;48.770;9.200;2023-01-26T00:58:48;66.85;;;26.17;;
295;SDS011;132;48.770;9.200;2023-01-26T01:01:16;52.10;;;21.77;;
295;SDS011;132;48.770;9.200;2023-01-26T01:03:42;52.50;;;22.05;;
295;SDS011;132;48.770;9.200;2023-01-26T01:06:09;65.28;;;23.88;;
295;SDS011;132;48.770;9.200;2023-01-26T01:08:35;54.05;;;22.50;;
295;SDS011;132;48.770;9.200;2023-01-26T01:11:03;53.83;;;21.83;;
295;SDS011;132;48.770;9.200;2023-01-26T01:13:34;66.60;;;23.55;;
295;SDS011;132;48.770;9.200;2023-01-26T01:16:12;60.75;;;23.15;;
295;SDS011;132;48.770;9.200;2023-01-26T01:18:40;53.30;;;22.08;;
295;SDS011;132;48.770;9.200;2023-01-26T01:21:09;62.15;;;23.27;;
295;SDS011;132;48.770;9.200;2023-01-26T01:23:37;61.05;;;23.83;;
295;SDS011;132;48.770;9.200;2023-01-26T01:26:04;59.60;;;23.75;;
295;SDS011;132;48.770;9.200;2023-01-26T01:28:31;56.85;;;22.70;;
295;SDS011;132;48.770;9.200;2023-01-26T01:31:02;67.15;;;24.73;;
295;SDS011;132;48.770;9.200;2023-01-26T01:33:29;57.60;;;23.38;;
295;SDS011;132;48.770;9.200;2023-01-26T01:35:57;62.05;;;23.42;;
295;SDS011;132;48.770;9.200;2023-01-26T01:38:24;48.60;;;20.42;;
295;SDS011;132;48.770;9.200;2023-01-26T01:40:52;64.93;;;25.70;;
295;SDS011;132;48.770;9.200;2023-01-26T01:43:19;53.75;;;21.33;;
295;SDS011;132;48.770;9.200;2023-01-26T01:45:47;64.38;;;26.15;;
295;SDS011;132;48.770;9.200;2023-01-26T01:49:16;62.10;;;23.33;;
295;SDS011;132;48.770;9.200;2023-01-26T01:51:26;64.93;;;23.90;;
295;SDS011;132;48.770;9.200;2023-01-26T01:54:03;62.90;;;22.75;;
295;SDS011;132;48.770;9.200;2023-01-26T01:56:33;70.70;;;25.63;;
295;SDS011;132;48.770;9.200;2023-01-26T01:59:01;58.42;;;21.48;;
295;SDS011;132;48.770;9.200;2023-01-26T02:01:29;61.85;;;22.17;;
295;SDS011;132;48.770;9.200;2023-01-26T02:03:56;68.80;;;24.70;;
295;SDS011;132;48.770;9.200;2023-01-26T02:07:01;76.13;;;23.83;;
295;SDS011;132;48.770;9.200;2023-01-26T02:09:29;62.97;;;23.30;;
295;SDS011;132;48.770;9.200;2023-01-26T02:12:29;60.80;;;22.65;;
295;SDS011;132;48.770;9.200;2023-01-26T02:15:00;61.88;;;23.42;;
295;SDS011;132;48.770;9.200;2023-01-26T02:17:29;74.00;;;25.05;;
295;SDS011;132;48.770;9.200;2023-01-26T02:25:12;69.85;;;25.35;;
295;SDS011;132;48.770;9.200;2023-01-26T02:27:55;65.45;;;24.42;;
295;SDS011;132;48.770;9.200;2023-01-26T02:30:24;65.65;;;24.35;;
295;SDS011;132;48.770;9.200;2023-01-26T02:32:52;64.30;;;23.17;;
295;SDS011;132;48.770;9.200;2023-01-26T02:35:19;58.50;;;21.42;;
295;SDS011;132;48.770;9.200;2023-01-26T02:37:45;58.72;;;23.08;;
295;SDS011;132;48.770;9.200;2023-01-26T02:41:01;55.80;;;22.05;;
295;SDS011;132;48.770;9.200;2023-01-26T02:43:05;65.32;;;22.05;;
295;SDS011;132;48.770;9.200;2023-01-26T02:45:32;53.90;;;20.83;;
295;SDS011;132;48.770;9.200;2023-01-26T02:47:59;55.38;;;21.58;;
295;SDS011;132;48.770;9.200;2023-01-26T02:50:29;61.47;;;22.63;;
295;SDS011;132;48.770;9.200;2023-01-26T02:52:56;50.10;;;20.65;;
295;SDS011;132;48.770;9.200;2023-01-26T02:55:24;50.80;;;19.52;;
295;SDS011;132;48.770;9.200;2023-01-26T02:57:52;51.60;;;20.65;;
295;SDS011;132;48.770;9.200;2023-01-26T03:00:20;43.75;;;18.75;;
295;SDS011;132;48.770;9.200;2023-01-26T03:02:50;56.78;;;19.90;;
295;SDS011;132;48.770;9.200;2023-01-26T03:05:18;46.28;;;18.80;;
295;SDS011;132;48.770;9.200;2023-01-26T03:07:45;48.35;;;18.73;;
295;SDS011;132;48.770;9.200;2023-01-26T03:10:12;46.55;;;18.02;;
295;SDS011;132;48.770;9.200;2023-01-26T03:12:40;45.08;;;18.80;;
295;SDS011;132;48.770;9.200;2023-01-26T03:15:07;55.20;;;19.27;;
295;SDS011;132;48.770;9.200;2023-01-26T03:17:59;48.97;;;18.38;;
295;SDS011;132;48.770;9.200;2023-01-26T03:20:49;43.75;;;17.40;;
295;SDS011;132;48.770;9.200;2023-01-26T03:23:37;46.50;;;18.33;;
295;SDS011;132;48.770;9.200;2023-01-26T03:26:24;41.55;;;16.77;;
295;SDS011;132;48.770;9.200;2023-01-26T03:29:09;47.13;;;17.35;;
295;SDS011;132;48.770;9.200;2023-01-26T03:31:37;56.47;;;21.08;;
295;SDS011;132;48.770;9.200;2023-01-26T03:34:04;51.10;;;18.35;;
295;SDS011;132;48.770;9.200;2023-01-26T03:36:31;52.05;;;20.17;;
295;SDS011;132;48.770;9.200;2023-01-26T03:38:58;48.00;;;17.73;;
295;SDS011;132;48.770;9.200;2023-01-26T03:41:25;56.65;;;21.13;;
295;SDS011;132;48.770;9.200;2023-01-26T03:44:10;50.47;;;18.55;;
295;SDS011;132;48.770;9.200;2023-01-26T03:46:57;42.78;;;18.15;;
295;SDS011;132;48.770;9.200;2023-01-26T03:49:42;50.65;;;20.00;;
295;SDS011;132;48.770;9.200;2023-01-26T03:52:30;51.70;;;18.63;;
295;SDS011;132;48.770;9.200;2023-01-26T03:55:16;59.13;;;20.75;;
295;SDS011;132;48.770;9.200;2023-01-26T03:58:01;52.10;;;19.40;;
295;SDS011;132;48.770;9.200;2023-01-26T04:00:28;57.83;;;20.90;;
295;SDS011;132;48.770;9.200;2023-01-26T04:02:55;55.47;;;20.42;;
295;SDS011;132;48.770;9.200;2023-01-26T04:05:40;49.88;;;19.00;;
295;SDS011;132;48.770;9.200;2023-01-26T04:08:25;57.05;;;19.90;;
295;SDS011;132;48.770;9.200;2023-01-26T04:10:56;46.65;;;18.05;;
295;SDS011;132;48.770;9.200;2023-01-26T04:13:23;52.03;;;19.17;;
295;SDS011;132;48.770;9.200;2023-01-26T04:16:12;52.60;;;18.92;;
295;SDS011;132;48.770;9.200;2023-01-26T04:18:57;50.78;;;18.77;;
295;SDS011;132;48.770;9.200;2023-01-26T04:21:42;41.67;;;17.45;;
295;SDS011;132;48.770;9.200;2023-01-26T04:24:14;55.50;;;20.92;;
295;SDS011;132;48.770;9.200;2023-01-26T04:26:41;49.38;;;20.23;;
295;SDS011;132;48.770;9.200;2023-01-26T04:29:12;51.75;;;20.90;;
295;SDS011;132;48.770;9.200;2023-01-26T04:31:42;54.60;;;19.48;;
295;SDS011;132;48.770;9.200;2023-01-26T04:34:12;50.15;;;20.15;;
295;SDS011;132;48.770;9.200;2023-01-26T04:36:41;49.28;;;18.80;;
295;SDS011;132;48.770;9.200;2023-01-26T04:39:08;48.83;;;18.95;;
295;SDS011;132;48.770;9.200;2023-01-26T04:41:38;72.63;;;23.95;;
295;SDS011;132;48.770;9.200;2023-01-26T04:44:08;56.47;;;21.77;;
295;SDS011;132;48.770;9.200;2023-01-26T04:46:35;48.53;;;18.63;;
295;SDS011;132;48.770;9.200;2023-01-26T04:49:02;44.47;;;17.45;;
295;SDS011;132;48.770;9.200;2023-01-26T04:51:29;47.70;;;17.80;;
295;SDS011;132;48.770;9.200;2023-01-26T04:53:55;37.70;;;16.60;;
295;SDS011;132;48.770;9.200;2023-01-26T04:58:54;36.47;;;15.80;;
295;SDS011;132;48.770;9.200;2023-01-26T05:01:23;59.53;;;20.70;;
295;SDS011;132;48.770;9.200;2023-01-26T05:03:50;54.72;;;19.17;;
295;SDS011;132;48.770;9.200;2023-01-26T05:06:17;39.83;;;16.77;;
295;SDS011;132;48.770;9.200;2023-01-26T05:08:46;44.97;;;17.80;;
295;SDS011;132;48.770;9.200;2023-01-26T05:11:12;42.58;;;17.83;;
295;SDS011;132;48.770;9.200;2023-01-26T05:13:59;41.95;;;17.05;;
295;SDS011;132;48.770;9.200;2023-01-26T05:16:35;56.53;;;18.77;;
295;SDS011;132;48.770;9.200;2023-01-26T05:19:28;46.20;;;17.90;;
295;SDS011;132;48.770;9.200;2023-01-26T05:22:13;49.70;;;17.65;;
295;SDS011;132;48.770;9.200;2023-01-26T05:24:48;47.95;;;18.45;;
295;SDS011;132;48.770;9.200;2023-01-26T05:27:30;56.70;;;19.65;;
295;SDS011;132;48.770;9.200;2023-01-26T05:29:59;43.33;;;17.75;;
295;SDS011;132;48.770;9.200;2023-01-26T05:32:29;61.22;;;20.40;;
295;SDS011;132;48.770;9.200;2023-01-26T05:34:56;46.80;;;18.77;;
295;SDS011;132;48.770;9.200;2023-01-26T05:37:24;43.88;;;17.40;;
295;SDS011;132;48.770;9.200;2023-01-26T05:39:52;48.22;;;18.48;;
295;SDS011;132;48.770;9.200;2023-01-26T05:42:19;49.92;;;17.73;;
295;SDS011;132;48.770;9.200;2023-01-26T05:45:00;42.83;;;17.38;;
295;SDS011;132;48.770;9.200;2023-01-26T05:47:28;45.15;;;16.13;;
295;SDS011;132;48.770;9.200;2023-01-26T05:49:54;40.80;;;17.75;;
295;SDS011;132;48.770;9.200;2023-01-26T05:52:25;47.45;;;17.65;;
295;SDS011;132;48.770;9.200;2023-01-26T05:54:51;43.05;;;17.48;;
295;SDS011;132;48.770;9.200;2023-01-26T05:57:18;54.78;;;19.50;;
295;SDS011;132;48.770;9.200;2023-01-26T05:59:51;43.10;;;17.35;;
295;SDS011;132;48.770;9.200;2023-01-26T06:02:18;35.63;;;15.75;;
295;SDS011;132;48.770;9.200;2023-01-26T06:04:44;36.45;;;15.20;;
295;SDS011;132;48.770;9.200;2023-01-26T06:07:11;37.47;;;15.38;;
295;SDS011;132;48.770;9.200;2023-01-26T06:09:46;44.08;;;17.23;;
295;SDS011;132;48.770;9.200;2023-01-26T06:12:22;43.88;;;17.50;;
295;SDS011;132;48.770;9.200;2023-01-26T06:14:54;40.65;;;16.75;;
295;SDS011;132;48.770;9.200;2023-01-26T06:17:21;47.40;;;17.85;;
295;SDS011;132;48.770;9.200;2023-01-26T06:19:54;43.13;;;17.35;;
295;SDS011;132;48.770;9.200;2023-01-26T06:22:21;39.50;;;16.70;;
295;SDS011;132;48.770;9.200;2023-01-26T06:24:49;43.60;;;16.80;;
295;SDS011;132;48.770;9.200;2023-01-26T06:27:18;41.92;;;15.60;;
295;SDS011;132;48.770;9.200;2023-01-26T06:29:48;43.22;;;16.67;;
295;SDS011;132;48.770;9.200;2023-01-26T06:32:21;45.22;;;17.90;;
295;SDS011;132;48.770;9.200;2023-01-26T06:34:51;41.08;;;16.73;;
295;SDS011;132;48.770;9.200;2023-01-26T06:37:19;43.28;;;18.63;;
295;SDS011;132;48.770;9.200;2023-01-26T06:39:46;40.38;;;16.92;;
295;SDS011;132;48.770;9.200;2023-01-26T06:42:12;45.67;;;17.70;;
295;SDS011;132;48.770;9.200;2023-01-26T06:44:38;46.20;;;17.30;;
295;SDS011;132;48.770;9.200;2023-01-26T06:47:05;47.33;;;18.05;;
295;SDS011;132;48.770;9.200;2023-01-26T06:49:32;34.88;;;15.27;;
295;SDS011;132;48.770;9.200;2023-01-26T06:55:14;45.85;;;17.33;;
295;SDS011;132;48.770;9.200;2023-01-26T06:57:53;48.42;;;18.20;;
295;SDS011;132;48.770;9.200;2023-01-26T07:00:37;44.83;;;16.85;;
295;SDS011;132;48.770;9.200;2023-01-26T07:03:23;43.40;;;17.02;;
295;SDS011;132;48.770;9.200;2023-01-26T07:05:49;36.17;;;16.42;;
295;SDS011;132;48.770;9.200;2023-01-26T07:08:16;39.55;;;16.65;;
295;SDS011;132;48.770;9.200;2023-01-26T07:10:42;47.28;;;18.67;;
295;SDS011;132;48.770;9.200;2023-01-26T07:13:09;41.17;;;16.83;;
295;SDS011;132;48.770;9.200;2023-01-26T07:15:35;49.25;;;17.25;;
295;SDS011;132;48.770;9.200;2023-01-26T07:18:02;41.10;;;16.98;;
295;SDS011;132;48.770;9.200;2023-01-26T07:20:28;44.50;;;17.77;;
295;SDS011;132;48.770;9.200;2023-01-26T07:22:55;38.83;;;16.00;;
295;SDS011;132;48.770;9.200;2023-01-26T07:25:23;39.03;;;16.13;;
295;SDS011;132;48.770;9.200;2023-01-26T07:27:54;44.13;;;17.50;;
295;SDS011;132;48.770;9.200;2023-01-26T07:30:23;40.03;;;16.63;;
295;SDS011;132;48.770;9.200;2023-01-26T07:32:49;36.92;;;16.85;;
295;SDS011;132;48.770;9.200;2023-01-26T07:35:16;35.63;;;15.88;;
295;SDS011;132;48.770;9.200;2023-01-26T07:37:43;39.10;;;16.27;;
295;SDS011;132;48.770;9.200;2023-01-26T07:40:09;43.25;;;18.33;;
295;SDS011;132;48.770;9.200;2023-01-26T07:42:36;33.90;;;14.60;;
295;SDS011;132;48.770;9.200;2023-01-26T07:45:06;33.53;;;14.60;;
295;SDS011;132;48.770;9.200;2023-01-26T07:47:33;39.40;;;16.55;;
295;SDS011;132;48.770;9.200;2023-01-26T07:50:00;36.88;;;16.15;;
295;SDS011;132;48.770;9.200;2023-01-26T07:52:27;35.92;;;15.95;;
295;SDS011;132;48.770;9.200;2023-01-26T07:54:53;38.47;;;15.90;;
295;SDS011;132;48.770;9.200;2023-01-26T07:57:19;36.00;;;15.52;;
295;SDS011;132;48.770;9.200;2023-01-26T07:59:46;34.10;;;14.90;;
295;SDS011;132;48.770;9.200;2023-01-26T08:02:12;33.95;;;14.88;;
295;SDS011;132;48.770;9.200;2023-01-26T08:04:39;37.15;;;15.90;;
295;SDS011;132;48.770;9.200;2023-01-26T08:07:05;35.55;;;15.07;;
295;SDS011;132;48.770;9.200;2023-01-26T08:09:31;31.27;;;14.35;;
295;SDS011;132;48.770;9.200;2023-01-26T08:11:58;35.05;;;15.20;;
295;SDS011;132;48.770;9.200;2023-01-26T08:14:24;32.97;;;13.52;;
295;SDS011;132;48.770;9.200;2023-01-26T08:16:51;36.75;;;15.10;;
295;SDS011;132;48.770;9.200;2023-01-26T08:19:17;33.05;;;13.55;;
295;SDS011;132;48.770;9.200;2023-01-26T08:21:44;38.60;;;14.65;;
295;SDS011;132;48.770;9.200;2023-01-26T08:24:10;31.23;;;14.25;;
295;SDS011;132;48.770;9.200;2023-01-26T08:26:37;34.17;;;14.07;;
295;SDS011;132;48.770;9.200;2023-01-26T08:29:03;34.45;;;15.55;;
295;SDS011;132;48.770;9.200;2023-01-26T08:31:30;37.10;;;16.13;;
295;SDS011;132;48.770;9.200;2023-01-26T08:33:58;27.65;;;13.63;;
295;SDS011;132;48.770;9.200;2023-01-26T08:36:24;31.50;;;12.70;;
295;SDS011;132;48.770;9.200;2023-01-26T08:38:51;37.08;;;15.25;;
295;SDS011;132;48.770;9.200;2023-01-26T08:41:18;32.30;;;14.43;;
295;SDS011;132;48.770;9.200;2023-01-26T08:43:45;37.78;;;15.65;;
295;SDS011;132;48.770;9.200;2023-01-26T08:46:11;39.00;;;14.82;;
295;SDS011;132;48.770;9.200;2023-01-26T08:48:38;35.78;;;15.27;;
295;SDS011;132;48.770;9.200;2023-01-26T08:51:05;34.38;;;13.90;;
295;SDS011;132;48.770;9.200;2023-01-26T08:53:33;39.22;;;15.30;;
295;SDS011;132;48.770;9.200;2023-01-26T08:56:01;29.88;;;13.63;;
295;SDS011;132;48.770;9.200;2023-01-26T08:58:28;29.27;;;12.57;;
295;SDS011;132;48.770;9.200;2023-01-26T09:00:55;25.13;;;11.55;;
295;SDS011;132;48.770;9.200;2023-01-26T09:03:21;24.08;;;11.48;;
295;SDS011;132;48.770;9.200;2023-01-26T09:05:48;23.98;;;11.75;;
295;SDS011;132;48.770;9.200;2023-01-26T09:08:14;23.15;;;10.80;;
295;SDS011;132;48.770;9.200;2023-01-26T09:10:41;26.17;;;11.48;;
295;SDS011;132;48.770;9.200;2023-01-26T09:13:09;23.20;;;11.10;;
295;SDS011;132;48.770;9.200;2023-01-26T09:15:37;24.65;;;11.10;;
295;SDS011;132;48.770;9.200;2023-01-26T09:18:03;25.77;;;11.23;;
295;SDS011;132;48.770;9.200;2023-01-26T09:20:30;29.10;;;12.75;;
295;SDS011;132;48.770;9.200;2023-01-26T09:22:56;31.73;;;13.55;;
295;SDS011;132;48.770;9.200;2023-01-26T09:25:23;27.67;;;11.32;;
295;SDS011;132;48.770;9.200;2023-01-26T09:27:49;27.52;;;12.52;;
295;SDS011;132;48.770;9.200;2023-01-26T09:30:15;32.53;;;11.80;;
295;SDS011;132;48.770;9.200;2023-01-26T09:32:42;31.88;;;13.05;;
295;SDS011;132;48.770;9.200;2023-01-26T09:35:08;26.98;;;13.40;;
295;SDS011;132;48.770;9.200;2023-01-26T09:37:37;28.83;;;13.10;;
295;SDS011;132;48.770;9.200;2023-01-26T09:40:04;28.45;;;12.35;;
295;SDS011;132;48.770;9.200;2023-01-26T09:47:44;27.35;;;11.95;;
295;SDS011;132;48.770;9.200;2023-01-26T09:50:32;27.40;;;12.48;;
295;SDS011;132;48.770;9.200;2023-01-26T09:53:06;24.90;;;11.48;;
295;SDS011;132;48.770;9.200;2023-01-26T09:55:41;22.67;;;11.07;;
295;SDS011;132;48.770;9.200;2023-01-26T10:01:04;25.90;;;12.27;;
295;SDS011;132;48.770;9.200;2023-01-26T10:06:40;24.38;;;11.35;;
295;SDS011;132;48.770;9.200;2023-01-26T10:09:21;28.33;;;12.10;;
295;SDS011;132;48.770;9.200;2023-01-26T10:11:52;27.80;;;11.85;;
295;SDS011;132;48.770;9.200;2023-01-26T10:14:31;28.52;;;13.40;;
295;SDS011;132;48.770;9.200;2023-01-26T10:17:30;30.58;;;12.15;;
295;SDS011;132;48.770;9.200;2023-01-26T10:20:06;27.92;;;12.80;;
295;SDS011;132;48.770;9.200;2023-01-26T10:22:37;24.65;;;11.20;;
295;SDS011;132;48.770;9.200;2023-01-26T10:25:18;23.50;;;10.57;;
295;SDS011;132;48.770;9.200;2023-01-26T10:27:53;23.63;;;10.90;;
295;SDS011;132;48.770;9.200;2023-01-26T10:30:19;25.48;;;11.27;;
295;SDS011;132;48.770;9.200;2023-01-26T10:32:47;21.25;;;10.13;;
295;SDS011;132;48.770;9.200;2023-01-26T10:35:17;21.17;;;10.15;;
295;SDS011;132;48.770;9.200;2023-01-26T10:37:49;21.52;;;9.73;;
295;SDS011;132;48.770;9.200;2023-01-26T10:40:17;16.08;;;8.15;;
295;SDS011;132;48.770;9.200;2023-01-26T10:42:54;17.13;;;8.73;;
295;SDS011;132;48.770;9.200;2023-01-26T10:45:24;21.42;;;9.52;;
295;SDS011;132;48.770;9.200;2023-01-26T10:48:17;21.13;;;9.27;;
295;SDS011;132;48.770;9.200;2023-01-26T10:50:46;20.02;;;10.00;;
295;SDS011;132;48.770;9.200;2023-01-26T10:53:14;20.20;;;8.75;;
295;SDS011;132;48.770;9.200;2023-01-26T10:58:33;18.33;;;7.68;;
295;SDS011;132;48.770;9.200;2023-01-26T11:01:04;13.63;;;7.50;;
295;SDS011;132;48.770;9.200;2023-01-26T11:03:34;20.10;;;8.65;;
295;SDS011;132;48.770;9.200;2023-01-26T11:06:04;20.73;;;9.35;;
295;SDS011;132;48.770;9.200;2023-01-26T11:08:34;17.40;;;8.60;;
295;SDS011;132;48.770;9.200;2023-01-26T11:11:02;17.55;;;8.27;;
295;SDS011;132;48.770;9.200;2023-01-26T11:13:29;20.05;;;9.52;;
295;SDS011;132;48.770;9.200;2023-01-26T11:16:02;20.42;;;9.45;;
295;SDS011;132;48.770;9.200;2023-01-26T11:19:02;18.88;;;9.75;;
295;SDS011;132;48.770;9.200;2023-01-26T11:24:25;25.20;;;11.10;;
295;SDS011;132;48.770;9.200;2023-01-26T11:30:27;20.55;;;9.60;;
295;SDS011;132;48.770;9.200;2023-01-26T11:33:13;25.38;;;11.48;;
295;SDS011;132;48.770;9.200;2023-01-26T11:36:05;25.95;;;10.48;;
295;SDS011;132;48.770;9.200;2023-01-26T11:38:41;24.98;;;10.50;;
295;SDS011;132;48.770;9.200;2023-01-26T11:49:44;25.52;;;10.43;;
295;SDS011;132;48.770;9.200;2023-01-26T11:55:26;23.05;;;10.05;;
295;SDS011;132;48.770;9.200;2023-01-26T11:58:17;25.60;;;10.65;;
295;SDS011;132;48.770;9.200;2023-01-26T12:00:59;21.42;;;9.10;;
295;SDS011;132;48.770;9.200;2023-01-26T12:03:47;24.98;;;11.85;;
295;SDS011;132;48.770;9.200;2023-01-26T12:06:18;25.05;;;10.55;;
295;SDS011;132;48.770;9.200;2023-01-26T12:08:47;21.52;;;9.57;;
295;SDS011;132;48.770;9.200;2023-01-26T12:11:32;24.58;;;10.70;;
295;SDS011;132;48.770;9.200;2023-01-26T12:22:39;26.77;;;11.25;;
295;SDS011;132;48.770;9.200;2023-01-26T12:25:18;23.63;;;10.43;;
295;SDS011;132;48.770;9.200;2023-01-26T12:30:54;26.05;;;11.50;;
295;SDS011;132;48.770;9.200;2023-01-26T12:33:37;27.90;;;12.05;;
295;SDS011;132;48.770;9.200;2023-01-26T12:44:37;22.50;;;9.88;;
295;SDS011;132;48.770;9.200;2023-01-26T12:47:31;19.77;;;9.55;;
295;SDS011;132;48.770;9.200;2023-01-26T12:50:03;24.83;;;10.73;;
295;SDS011;132;48.770;9.200;2023-01-26T12:52:36;20.15;;;8.98;;
295;SDS011;132;48.770;9.200;2023-01-26T12:58:11;20.77;;;10.07;;
295;SDS011;132;48.770;9.200;2023-01-26T13:01:08;23.77;;;11.48;;
295;SDS011;132;48.770;9.200;2023-01-26T13:11:02;26.80;;;11.77;;
295;SDS011;132;48.770;9.200;2023-01-26T13:13:32;27.70;;;12.43;;
295;SDS011;132;48.770;9.200;2023-01-26T13:18:49;30.85;;;13.38;;
295;SDS011;132;48.770;9.200;2023-01-26T13:24:00;28.83;;;13.25;;
295;SDS011;132;48.770;9.200;2023-01-26T13:29:25;35.17;;;15.45;;
295;SDS011;132;48.770;9.200;2023-01-26T13:31:55;36.33;;;15.20;;
295;SDS011;132;48.770;9.200;2023-01-26T13:36:55;40.65;;;17.13;;
295;SDS011;132;48.770;9.200;2023-01-26T13:39:33;39.25;;;15.80;;
295;SDS011;132;48.770;9.200;2023-01-26T13:42:02;34.45;;;14.80;;
295;SDS011;132;48.770;9.200;2023-01-26T13:44:42;32.50;;;14.65;;
295;SDS011;132;48.770;9.200;2023-01-26T13:47:17;30.92;;;13.75;;
295;SDS011;132;48.770;9.200;2023-01-26T13:49:48;28.83;;;13.00;;
295;SDS011;132;48.770;9.200;2023-01-26T13:52:19;40.58;;;15.63;;
295;SDS011;132;48.770;9.200;2023-01-26T13:54:49;34.10;;;14.40;;
295;SDS011;132;48.770;9.200;2023-01-26T13:57:21;34.97;;;15.55;;
295;SDS011;132;48.770;9.200;2023-01-26T13:59:56;33.50;;;15.25;;
295;SDS011;132;48.770;9.200;2023-01-26T14:02:26;30.98;;;14.13;;
295;SDS011;132;48.770;9.200;2023-01-26T14:04:53;35.55;;;14.93;;
295;SDS011;132;48.770;9.200;2023-01-26T14:07:26;31.45;;;13.77;;
295;SDS011;132;48.770;9.200;2023-01-26T14:10:01;28.73;;;13.73;;
295;SDS011;132;48.770;9.200;2023-01-26T14:12:33;39.33;;;15.30;;
295;SDS011;132;48.770;9.200;2023-01-26T14:15:05;29.33;;;13.27;;
295;SDS011;132;48.770;9.200;2023-01-26T14:17:33;32.40;;;14.15;;
295;SDS011;132;48.770;9.200;2023-01-26T14:20:06;34.63;;;13.48;;
295;SDS011;132;48.770;9.200;2023-01-26T14:25:32;32.83;;;12.73;;
295;SDS011;132;48.770;9.200;2023-01-26T14:27:59;39.38;;;16.15;;
295;SDS011;132;48.770;9.200;2023-01-26T14:30:27;33.58;;;14.43;;
295;SDS011;132;48.770;9.200;2023-01-26T14:32:59;35.15;;;15.55;;
295;SDS011;132;48.770;9.200;2023-01-26T14:35:34;33.08;;;15.05;;
295;SDS011;132;48.770;9.200;2023-01-26T14:38:04;35.50;;;16.42;;
295;SDS011;132;48.770;9.200;2023-01-26T14:40:48;39.38;;;15.80;;
295;SDS011;132;48.770;9.200;2023-01-26T14:43:16;41.05;;;15.35;;
295;SDS011;132;48.770;9.200;2023-01-26T14:45:47;29.98;;;14.13;;
295;SDS011;132;48.770;9.200;2023-01-26T14:48:15;29.95;;;12.93;;
295;SDS011;132;48.770;9.200;2023-01-26T14:50:45;26.98;;;12.25;;
295;SDS011;132;48.770;9.200;2023-01-26T14:53:20;30.20;;;13.65;;
295;SDS011;132;48.770;9.200;2023-01-26T14:55:47;31.15;;;13.50;;
295;SDS011;132;48.770;9.200;2023-01-26T14:58:28;32.30;;;12.95;;
295;SDS011;132;48.770;9.200;2023-01-26T15:00:57;32.05;;;13.63;;
295;SDS011;132;48.770;9.200;2023-01-26T15:06:04;32.70;;;14.43;;
295;SDS011;132;48.770;9.200;2023-01-26T15:09:18;29.70;;;12.60;;
295;SDS011;132;48.770;9.200;2023-01-26T15:11:50;33.10;;;13.90;;
295;SDS011;132;48.770;9.200;2023-01-26T15:14:45;28.13;;;11.68;;
295;SDS011;132;48.770;9.200;2023-01-26T15:17:28;29.67;;;11.95;;
295;SDS011;132;48.770;9.200;2023-01-26T15:20:00;30.13;;;12.82;;
295;SDS011;132;48.770;9.200;2023-01-26T15:22:27;34.92;;;12.82;;
295;SDS011;132;48.770;9.200;2023-01-26T15:24:58;32.40;;;13.98;;
295;SDS011;132;48.770;9.200;2023-01-26T15:27:33;32.47;;;12.93;;
295;SDS011;132;48.770;9.200;2023-01-26T15:30:01;27.77;;;12.57;;
295;SDS011;132;48.770;9.200;2023-01-26T15:32:30;34.88;;;12.90;;
295;SDS011;132;48.770;9.200;2023-01-26T15:35:05;31.65;;;13.52;;
295;SDS011;132;48.770;9.200;2023-01-26T15:37:43;30.35;;;13.25;;
295;SDS011;132;48.770;9.200;2023-01-26T15:40:10;29.85;;;12.77;;
295;SDS011;132;48.770;9.200;2023-01-26T15:42:36;30.73;;;13.98;;
295;SDS011;132;48.770;9.200;2023-01-26T15:45:09;34.13;;;13.70;;
295;SDS011;132;48.770;9.200;2023-01-26T15:47:46;31.25;;;12.70;;
295;SDS011;132;48.770;9.200;2023-01-26T15:50:12;33.50;;;14.80;;
295;SDS011;132;48.770;9.200;2023-01-26T15:52:39;31.88;;;14.32;;
295;SDS011;132;48.770;9.200;2023-01-26T15:55:19;34.38;;;13.65;;
295;SDS011;132;48.770;9.200;2023-01-26T15:57:49;47.10;;;23.73;;
295;SDS011;132;48.770;9.200;2023-01-26T16:00:15;43.15;;;19.98;;
295;SDS011;132;48.770;9.200;2023-01-26T16:02:42;37.08;;;17.92;;
295;SDS011;132;48.770;9.200;2023-01-26T16:05:20;30.88;;;15.07;;
295;SDS011;132;48.770;9.200;2023-01-26T16:07:47;39.63;;;18.45;;
295;SDS011;132;48.770;9.200;2023-01-26T16:10:15;33.72;;;15.32;;
295;SDS011;132;48.770;9.200;2023-01-26T16:12:46;31.10;;;13.98;;
295;SDS011;132;48.770;9.200;2023-01-26T16:18:00;29.42;;;12.60;;
295;SDS011;132;48.770;9.200;2023-01-26T16:20:26;35.10;;;14.15;;
295;SDS011;132;48.770;9.200;2023-01-26T16:22:53;33.47;;;14.30;;
295;SDS011;132;48.770;9.200;2023-01-26T16:27:51;40.63;;;17.70;;
295;SDS011;132;48.770;9.200;2023-01-26T16:30:18;37.50;;;17.23;;
295;SDS011;132;48.770;9.200;2023-01-26T16:32:45;32.08;;;13.95;;
295;SDS011;132;48.770;9.200;2023-01-26T16:35:14;32.83;;;14.60;;
295;SDS011;132;48.770;9.200;2023-01-26T16:37:42;31.98;;;14.77;;
295;SDS011;132;48.770;9.200;2023-01-26T16:40:09;32.75;;;15.35;;
295;SDS011;132;48.770;9.200;2023-01-26T16:42:39;28.38;;;12.77;;
295;SDS011;132;48.770;9.200;2023-01-26T16:45:13;32.92;;;14.77;;
295;SDS011;132;48.770;9.200;2023-01-26T16:47:49;33.03;;;14.57;;
295;SDS011;132;48.770;9.200;2023-01-26T16:50:18;34.85;;;13.75;;
295;SDS011;132;48.770;9.200;2023-01-26T16:52:45;25.73;;;12.65;;
295;SDS011;132;48.770;9.200;2023-01-26T16:55:11;35.38;;;14.27;;
295;SDS011;132;48.770;9.200;2023-01-26T16:57:41;31.67;;;14.30;;
295;SDS011;132;48.770;9.200;2023-01-26T17:00:12;29.42;;;13.27;;
295;SDS011;132;48.770;9.200;2023-01-26T17:02:45;31.30;;;13.73;;
295;SDS011;132;48.770;9.200;2023-01-26T17:05:16;27.35;;;13.07;;
295;SDS011;132;48.770;9.200;2023-01-26T17:07:46;29.70;;;13.52;;
295;SDS011;132;48.770;9.200;2023-01-26T17:10:15;31.60;;;14.10;;
295;SDS011;132;48.770;9.200;2023-01-26T17:12:43;33.33;;;14.25;;
295;SDS011;132;48.770;9.200;2023-01-26T17:15:10;35.47;;;14.73;;
295;SDS011;132;48.770;9.200;2023-01-26T17:17:37;32.38;;;14.43;;
295;SDS011;132;48.770;9.200;2023-01-26T17:20:04;36.80;;;15.40;;